sensor_id;sensor_type;location;lat;lon;timestamp;pressure;altitude;pressure_sealevel;temperature;humidity
32251;BME280;41295;48.518;9.206;2023-04-01T00:02:01;95933.50;;;10.28;66.44
32251;BME280;41295;48.518;9.206;2023-04-01T00:04:04;95926.50;;;10.14;66.76
32251;BME280;41295;48.518;9.206;2023-04-01T00:06:07;95926.50;;;10.14;66.37
32251;BME280;41295;48.518;9.206;2023-04-01T00:08:10;95940.25;;;10.16;65.94
32251;BME280;41295;48.518;9.206;2023-04-01T00:10:15;95935.91;;;10.16;66.28
32251;BME280;41295;48.518;9.206;2023-04-01T00:12:17;95945.00;;;10.09;66.44
32251;BME280;41295;48.518;9.206;2023-04-01T00:14:20;95945.22;;;10.04;66.91
32251;BME280;41295;48.518;9.206;2023-04-01T00:16:24;95940.78;;;10.06;66.60
32251;BME280;41295;48.518;9.206;2023-04-01T00:18:27;95938.00;;;10.09;66.68
32251;BME280;41295;48.518;9.206;2023-04-01T00:20:30;95940.44;;;10.13;66.33
32251;BME280;41295;48.518;9.206;2023-04-01T00:22:32;95931.03;;;10.10;66.51
32251;BME280;41295;48.518;9.206;2023-04-01T00:24:35;95932.16;;;10.06;66.39
32251;BME280;41295;48.518;9.206;2023-04-01T00:26:38;95934.41;;;10.12;65.64
32251;BME280;41295;48.518;9.206;2023-04-01T00:28:42;95925.25;;;10.05;67.07
32251;BME280;41295;48.518;9.206;2023-04-01T00:30:44;95926.53;;;9.97;66.86
32251;BME280;41295;48.518;9.206;2023-04-01T00:32:52;95917.75;;;10.15;66.86
32251;BME280;41295;48.518;9.206;2023-04-01T00:34:55;95921.19;;;10.15;66.83
32251;BME280;41295;48.518;9.206;2023-04-01T00:36:57;95929.78;;;10.01;66.52
32251;BME280;41295;48.518;9.206;2023-04-01T00:39:00;95919.91;;;10.22;66.24
32251;BME280;41295;48.518;9.206;2023-04-01T00:41:03;95925.72;;;10.11;66.89
32251;BME280;41295;48.518;9.206;2023-04-01T00:43:11;95931.50;;;10.17;66.45
32251;BME280;41295;48.518;9.206;2023-04-01T00:45:28;95924.34;;;10.20;66.73
32251;BME280;41295;48.518;9.206;2023-04-01T00:47:31;95922.88;;;10.16;66.27
32251;BME280;41295;48.518;9.206;2023-04-01T00:49:38;95934.63;;;10.23;66.57
32251;BME280;41295;48.518;9.206;2023-04-01T00:51:41;95950.31;;;10.22;66.04
32251;BME280;41295;48.518;9.206;2023-04-01T00:53:48;95930.84;;;10.13;66.62
32251;BME280;41295;48.518;9.206;2023-04-01T00:55:56;95932.50;;;9.99;66.70
32251;BME280;41295;48.518;9.206;2023-04-01T00:58:05;95934.03;;;9.88;67.51
32251;BME280;41295;48.518;9.206;2023-04-01T01:00:12;95929.03;;;9.99;66.69
32251;BME280;41295;48.518;9.206;2023-04-01T01:02:16;95924.72;;;10.14;66.01
32251;BME280;41295;48.518;9.206;2023-04-01T01:04:24;95922.91;;;10.00;66.71
32251;BME280;41295;48.518;9.206;2023-04-01T01:06:37;95924.59;;;10.01;66.06
32251;BME280;41295;48.518;9.206;2023-04-01T01:08:57;95932.84;;;9.93;66.21
32251;BME280;41295;48.518;9.206;2023-04-01T01:11:10;95923.72;;;9.86;66.89
32251;BME280;41295;48.518;9.206;2023-04-01T01:13:17;95926.19;;;10.04;65.91
32251;BME280;41295;48.518;9.206;2023-04-01T01:15:24;95927.28;;;9.99;66.49
32251;BME280;41295;48.518;9.206;2023-04-01T01:17:39;95933.63;;;10.10;66.19
32251;BME280;41295;48.518;9.206;2023-04-01T01:19:57;95924.41;;;10.04;65.76
32251;BME280;41295;48.518;9.206;2023-04-01T01:22:39;95923.91;;;9.97;65.73
32251;BME280;41295;48.518;9.206;2023-04-01T01:24:58;95923.69;;;10.02;65.51
32251;BME280;41295;48.518;9.206;2023-04-01T01:27:06;95920.56;;;9.95;65.66
32251;BME280;41295;48.518;9.206;2023-04-01T01:29:25;95917.47;;;9.89;65.99
32251;BME280;41295;48.518;9.206;2023-04-01T01:31:34;95921.41;;;9.96;65.77
32251;BME280;41295;48.518;9.206;2023-04-01T01:33:53;95922.91;;;10.00;64.82
32251;BME280;41295;48.518;9.206;2023-04-01T01:36:04;95921.59;;;9.93;65.44
32251;BME280;41295;48.518;9.206;2023-04-01T01:38:12;95922.09;;;9.83;65.50
32251;BME280;41295;48.518;9.206;2023-04-01T01:40:16;95922.44;;;9.93;65.11
32251;BME280;41295;48.518;9.206;2023-04-01T01:42:20;95922.50;;;9.92;65.02
32251;BME280;41295;48.518;9.206;2023-04-01T01:44:26;95919.50;;;9.83;65.04
32251;BME280;41295;48.518;9.206;2023-04-01T01:46:31;95906.19;;;9.73;65.62
32251;BME280;41295;48.518;9.206;2023-04-01T01:48:34;95919.28;;;9.72;65.89
32251;BME280;41295;48.518;9.206;2023-04-01T01:50:38;95907.00;;;9.58;66.09
32251;BME280;41295;48.518;9.206;2023-04-01T01:52:44;95917.25;;;9.77;65.28
32251;BME280;41295;48.518;9.206;2023-04-01T01:54:47;95918.66;;;9.83;65.09
32251;BME280;41295;48.518;9.206;2023-04-01T01:57:00;95920.75;;;9.92;64.19
32251;BME280;41295;48.518;9.206;2023-04-01T01:59:08;95921.44;;;9.80;64.72
32251;BME280;41295;48.518;9.206;2023-04-01T02:01:14;95928.19;;;9.68;64.95
32251;BME280;41295;48.518;9.206;2023-04-01T02:03:20;95919.34;;;9.70;64.61
32251;BME280;41295;48.518;9.206;2023-04-01T02:05:25;95932.88;;;9.61;65.36
32251;BME280;41295;48.518;9.206;2023-04-01T02:07:32;95926.81;;;9.77;64.74
32251;BME280;41295;48.518;9.206;2023-04-01T02:09:39;95946.13;;;9.72;65.04
32251;BME280;41295;48.518;9.206;2023-04-01T02:11:47;95941.41;;;9.79;64.93
32251;BME280;41295;48.518;9.206;2023-04-01T02:13:52;95933.53;;;9.97;63.71
32251;BME280;41295;48.518;9.206;2023-04-01T02:16:00;95940.25;;;9.69;64.98
32251;BME280;41295;48.518;9.206;2023-04-01T02:18:06;95931.09;;;9.61;65.09
32251;BME280;41295;48.518;9.206;2023-04-01T02:20:13;95936.28;;;9.78;64.78
32251;BME280;41295;48.518;9.206;2023-04-01T02:22:20;95944.63;;;9.84;64.40
32251;BME280;41295;48.518;9.206;2023-04-01T02:24:26;95933.84;;;9.91;64.19
32251;BME280;41295;48.518;9.206;2023-04-01T02:26:31;95940.09;;;9.72;65.32
32251;BME280;41295;48.518;9.206;2023-04-01T02:28:37;95936.81;;;9.84;65.80
32251;BME280;41295;48.518;9.206;2023-04-01T02:30:43;95937.41;;;9.73;65.81
32251;BME280;41295;48.518;9.206;2023-04-01T02:32:47;95939.84;;;9.60;66.91
32251;BME280;41295;48.518;9.206;2023-04-01T02:34:51;95935.41;;;9.46;67.02
32251;BME280;41295;48.518;9.206;2023-04-01T02:36:55;95938.09;;;9.61;66.75
32251;BME280;41295;48.518;9.206;2023-04-01T02:38:58;95945.31;;;9.56;67.04
32251;BME280;41295;48.518;9.206;2023-04-01T02:41:03;95957.06;;;9.47;67.42
32251;BME280;41295;48.518;9.206;2023-04-01T02:43:08;95946.81;;;9.60;67.08
32251;BME280;41295;48.518;9.206;2023-04-01T02:45:12;95950.09;;;9.63;66.57
32251;BME280;41295;48.518;9.206;2023-04-01T02:47:15;95951.44;;;9.55;66.94
32251;BME280;41295;48.518;9.206;2023-04-01T02:49:18;95956.81;;;9.52;67.70
32251;BME280;41295;48.518;9.206;2023-04-01T02:51:21;95947.47;;;9.63;67.14
32251;BME280;41295;48.518;9.206;2023-04-01T02:53:23;95960.66;;;9.60;67.06
32251;BME280;41295;48.518;9.206;2023-04-01T02:55:26;95933.66;;;9.47;67.02
32251;BME280;41295;48.518;9.206;2023-04-01T02:57:29;95932.03;;;9.44;67.32
32251;BME280;41295;48.518;9.206;2023-04-01T02:59:33;95947.38;;;9.33;67.81
32251;BME280;41295;48.518;9.206;2023-04-01T03:01:36;95937.56;;;9.38;67.69
32251;BME280;41295;48.518;9.206;2023-04-01T03:03:38;95932.63;;;9.33;67.01
32251;BME280;41295;48.518;9.206;2023-04-01T03:05:41;95942.19;;;9.33;67.55
32251;BME280;41295;48.518;9.206;2023-04-01T03:07:44;95939.25;;;9.23;68.07
32251;BME280;41295;48.518;9.206;2023-04-01T03:09:46;95937.16;;;9.30;67.25
32251;BME280;41295;48.518;9.206;2023-04-01T03:11:49;95942.63;;;9.25;66.86
32251;BME280;41295;48.518;9.206;2023-04-01T03:13:51;95938.97;;;9.11;67.85
32251;BME280;41295;48.518;9.206;2023-04-01T03:15:55;95937.97;;;9.14;67.59
32251;BME280;41295;48.518;9.206;2023-04-01T03:17:58;95930.88;;;9.34;66.87
32251;BME280;41295;48.518;9.206;2023-04-01T03:20:01;95939.00;;;9.27;67.15
32251;BME280;41295;48.518;9.206;2023-04-01T03:22:06;95940.91;;;9.24;66.80
32251;BME280;41295;48.518;9.206;2023-04-01T03:24:08;95947.91;;;9.23;66.98
32251;BME280;41295;48.518;9.206;2023-04-01T03:26:11;95949.81;;;9.20;66.78
32251;BME280;41295;48.518;9.206;2023-04-01T03:28:14;95948.13;;;9.19;66.54
32251;BME280;41295;48.518;9.206;2023-04-01T03:30:17;95949.44;;;8.94;67.78
32251;BME280;41295;48.518;9.206;2023-04-01T03:32:21;95952.16;;;9.08;67.26
32251;BME280;41295;48.518;9.206;2023-04-01T03:34:24;95945.41;;;9.04;66.76
32251;BME280;41295;48.518;9.206;2023-04-01T03:36:27;95950.19;;;8.96;67.24
32251;BME280;41295;48.518;9.206;2023-04-01T03:38:29;95935.50;;;8.78;67.37
32251;BME280;41295;48.518;9.206;2023-04-01T03:40:32;95945.66;;;8.99;66.31
32251;BME280;41295;48.518;9.206;2023-04-01T03:42:38;95941.97;;;8.87;66.90
32251;BME280;41295;48.518;9.206;2023-04-01T03:44:41;95946.09;;;8.74;67.63
32251;BME280;41295;48.518;9.206;2023-04-01T03:46:43;95942.13;;;8.84;66.49
32251;BME280;41295;48.518;9.206;2023-04-01T03:48:47;95935.31;;;8.82;66.70
32251;BME280;41295;48.518;9.206;2023-04-01T03:50:50;95937.38;;;8.93;65.93
32251;BME280;41295;48.518;9.206;2023-04-01T03:52:53;95937.63;;;8.88;66.14
32251;BME280;41295;48.518;9.206;2023-04-01T03:54:56;95936.31;;;8.79;66.37
32251;BME280;41295;48.518;9.206;2023-04-01T03:56:58;95942.94;;;8.85;66.24
32251;BME280;41295;48.518;9.206;2023-04-01T03:59:02;95938.47;;;8.71;66.36
32251;BME280;41295;48.518;9.206;2023-04-01T04:01:13;95940.47;;;8.65;66.25
32251;BME280;41295;48.518;9.206;2023-04-01T04:03:16;95930.59;;;8.72;66.40
32251;BME280;41295;48.518;9.206;2023-04-01T04:05:20;95925.47;;;8.71;66.12
32251;BME280;41295;48.518;9.206;2023-04-01T04:07:23;95914.59;;;8.80;66.29
32251;BME280;41295;48.518;9.206;2023-04-01T04:09:25;95914.31;;;8.69;66.66
32251;BME280;41295;48.518;9.206;2023-04-01T04:11:30;95916.72;;;8.89;65.89
32251;BME280;41295;48.518;9.206;2023-04-01T04:13:34;95918.88;;;8.81;66.60
32251;BME280;41295;48.518;9.206;2023-04-01T04:15:38;95908.84;;;8.91;66.17
32251;BME280;41295;48.518;9.206;2023-04-01T04:17:40;95904.47;;;8.92;66.60
32251;BME280;41295;48.518;9.206;2023-04-01T04:19:43;95922.63;;;9.09;66.05
32251;BME280;41295;48.518;9.206;2023-04-01T04:21:47;95916.50;;;9.10;66.36
32251;BME280;41295;48.518;9.206;2023-04-01T04:23:50;95910.03;;;9.01;66.06
32251;BME280;41295;48.518;9.206;2023-04-01T04:25:54;95897.94;;;9.17;65.85
32251;BME280;41295;48.518;9.206;2023-04-01T04:27:57;95902.81;;;8.90;66.67
32251;BME280;41295;48.518;9.206;2023-04-01T04:29:59;95906.16;;;8.93;67.07
32251;BME280;41295;48.518;9.206;2023-04-01T04:32:02;95893.06;;;8.78;67.23
32251;BME280;41295;48.518;9.206;2023-04-01T04:34:05;95901.16;;;9.06;66.80
32251;BME280;41295;48.518;9.206;2023-04-01T04:36:08;95902.50;;;8.97;66.81
32251;BME280;41295;48.518;9.206;2023-04-01T04:38:12;95910.13;;;9.00;67.08
32251;BME280;41295;48.518;9.206;2023-04-01T04:40:14;95902.97;;;8.87;66.67
32251;BME280;41295;48.518;9.206;2023-04-01T04:42:17;95906.34;;;9.06;66.64
32251;BME280;41295;48.518;9.206;2023-04-01T04:44:20;95902.31;;;9.00;66.97
32251;BME280;41295;48.518;9.206;2023-04-01T04:46:22;95905.91;;;8.97;66.97
32251;BME280;41295;48.518;9.206;2023-04-01T04:48:25;95895.84;;;8.91;67.27
32251;BME280;41295;48.518;9.206;2023-04-01T04:50:27;95900.97;;;8.93;67.40
32251;BME280;41295;48.518;9.206;2023-04-01T04:52:30;95902.31;;;9.00;67.08
32251;BME280;41295;48.518;9.206;2023-04-01T04:54:34;95915.56;;;9.11;66.17
32251;BME280;41295;48.518;9.206;2023-04-01T04:56:37;95907.53;;;9.16;65.67
32251;BME280;41295;48.518;9.206;2023-04-01T04:58:39;95899.66;;;9.18;66.05
32251;BME280;41295;48.518;9.206;2023-04-01T05:00:42;95910.31;;;9.13;66.31
32251;BME280;41295;48.518;9.206;2023-04-01T05:02:45;95920.47;;;9.18;65.71
32251;BME280;41295;48.518;9.206;2023-04-01T05:04:47;95922.78;;;9.06;66.64
32251;BME280;41295;48.518;9.206;2023-04-01T05:06:50;95919.28;;;9.07;66.31
32251;BME280;41295;48.518;9.206;2023-04-01T05:08:53;95914.88;;;9.08;66.24
32251;BME280;41295;48.518;9.206;2023-04-01T05:10:57;95924.31;;;9.10;65.51
32251;BME280;41295;48.518;9.206;2023-04-01T05:12:59;95920.38;;;9.19;65.63
32251;BME280;41295;48.518;9.206;2023-04-01T05:15:02;95922.47;;;9.12;65.86
32251;BME280;41295;48.518;9.206;2023-04-01T05:17:08;95914.84;;;9.09;66.16
32251;BME280;41295;48.518;9.206;2023-04-01T05:19:11;95914.56;;;8.98;66.23
32251;BME280;41295;48.518;9.206;2023-04-01T05:21:14;95917.75;;;9.03;66.35
32251;BME280;41295;48.518;9.206;2023-04-01T05:23:17;95907.94;;;9.08;66.81
32251;BME280;41295;48.518;9.206;2023-04-01T05:25:22;95911.47;;;9.07;66.61
32251;BME280;41295;48.518;9.206;2023-04-01T05:27:26;95910.06;;;9.34;65.04
32251;BME280;41295;48.518;9.206;2023-04-01T05:29:28;95903.69;;;9.40;64.29
32251;BME280;41295;48.518;9.206;2023-04-01T05:31:31;95915.25;;;9.18;63.94
32251;BME280;41295;48.518;9.206;2023-04-01T05:33:34;95899.25;;;9.25;64.90
32251;BME280;41295;48.518;9.206;2023-04-01T05:35:37;95902.50;;;9.29;64.44
32251;BME280;41295;48.518;9.206;2023-04-01T05:37:40;95904.09;;;9.32;63.79
32251;BME280;41295;48.518;9.206;2023-04-01T05:39:43;95892.03;;;9.14;64.99
32251;BME280;41295;48.518;9.206;2023-04-01T05:41:45;95904.84;;;9.01;65.22
32251;BME280;41295;48.518;9.206;2023-04-01T05:43:49;95899.81;;;9.14;65.22
32251;BME280;41295;48.518;9.206;2023-04-01T05:45:52;95896.47;;;9.29;64.36
32251;BME280;41295;48.518;9.206;2023-04-01T05:47:54;95895.13;;;9.21;64.61
32251;BME280;41295;48.518;9.206;2023-04-01T05:49:57;95884.53;;;9.41;64.17
32251;BME280;41295;48.518;9.206;2023-04-01T05:52:00;95891.94;;;9.32;63.35
32251;BME280;41295;48.518;9.206;2023-04-01T05:54:04;95894.53;;;9.32;63.83
32251;BME280;41295;48.518;9.206;2023-04-01T05:56:07;95886.47;;;9.53;63.38
32251;BME280;41295;48.518;9.206;2023-04-01T05:58:10;95886.28;;;9.56;62.95
32251;BME280;41295;48.518;9.206;2023-04-01T06:00:15;95888.75;;;9.43;64.14
32251;BME280;41295;48.518;9.206;2023-04-01T06:02:18;95881.25;;;9.53;63.24
32251;BME280;41295;48.518;9.206;2023-04-01T06:04:21;95894.09;;;9.40;63.60
32251;BME280;41295;48.518;9.206;2023-04-01T06:06:25;95881.84;;;9.26;64.31
32251;BME280;41295;48.518;9.206;2023-04-01T06:08:30;95881.34;;;9.35;64.44
32251;BME280;41295;48.518;9.206;2023-04-01T06:10:39;95869.50;;;9.46;63.96
32251;BME280;41295;48.518;9.206;2023-04-01T06:12:55;95878.50;;;9.40;64.87
32251;BME280;41295;48.518;9.206;2023-04-01T06:15:25;95881.44;;;9.50;63.47
32251;BME280;41295;48.518;9.206;2023-04-01T06:17:43;95881.63;;;9.47;63.71
32251;BME280;41295;48.518;9.206;2023-04-01T06:19:51;95874.91;;;9.43;65.13
32251;BME280;41295;48.518;9.206;2023-04-01T06:22:12;95863.41;;;9.47;64.74
32251;BME280;41295;48.518;9.206;2023-04-01T06:24:36;95865.91;;;9.65;64.04
32251;BME280;41295;48.518;9.206;2023-04-01T06:26:48;95873.13;;;9.59;64.68
32251;BME280;41295;48.518;9.206;2023-04-01T06:31:50;95870.53;;;9.43;64.68
32251;BME280;41295;48.518;9.206;2023-04-01T06:34:14;95867.81;;;9.61;64.21
32251;BME280;41295;48.518;9.206;2023-04-01T06:36:50;95851.84;;;9.67;63.63
32251;BME280;41295;48.518;9.206;2023-04-01T06:39:10;95869.31;;;9.65;63.57
32251;BME280;41295;48.518;9.206;2023-04-01T06:41:31;95865.03;;;9.64;63.79
32251;BME280;41295;48.518;9.206;2023-04-01T06:43:48;95858.66;;;9.70;63.20
32251;BME280;41295;48.518;9.206;2023-04-01T06:45:55;95860.22;;;9.72;63.07
32251;BME280;41295;48.518;9.206;2023-04-01T06:48:14;95858.09;;;9.65;63.01
32251;BME280;41295;48.518;9.206;2023-04-01T06:50:22;95852.09;;;9.79;62.46
32251;BME280;41295;48.518;9.206;2023-04-01T06:52:32;95848.06;;;9.73;61.81
32251;BME280;41295;48.518;9.206;2023-04-01T06:54:39;95847.44;;;9.84;61.77
32251;BME280;41295;48.518;9.206;2023-04-01T06:56:45;95868.56;;;9.63;62.68
32251;BME280;41295;48.518;9.206;2023-04-01T06:58:53;95842.00;;;9.72;62.40
32251;BME280;41295;48.518;9.206;2023-04-01T07:00:59;95846.31;;;9.73;62.96
32251;BME280;41295;48.518;9.206;2023-04-01T07:03:16;95856.84;;;9.86;62.21
32251;BME280;41295;48.518;9.206;2023-04-01T07:05:22;95855.13;;;9.71;62.32
32251;BME280;41295;48.518;9.206;2023-04-01T07:07:30;95852.25;;;9.75;63.34
32251;BME280;41295;48.518;9.206;2023-04-01T07:09:39;95864.44;;;9.75;62.65
32251;BME280;41295;48.518;9.206;2023-04-01T07:11:42;95846.91;;;9.62;63.51
32251;BME280;41295;48.518;9.206;2023-04-01T07:13:49;95863.25;;;9.81;62.79
32251;BME280;41295;48.518;9.206;2023-04-01T07:16:03;95854.84;;;9.75;63.13
32251;BME280;41295;48.518;9.206;2023-04-01T07:18:14;95861.13;;;9.88;62.36
32251;BME280;41295;48.518;9.206;2023-04-01T07:20:22;95857.59;;;9.89;62.96
32251;BME280;41295;48.518;9.206;2023-04-01T07:22:29;95859.53;;;9.85;63.34
32251;BME280;41295;48.518;9.206;2023-04-01T07:24:37;95860.75;;;9.94;62.50
32251;BME280;41295;48.518;9.206;2023-04-01T07:26:41;95887.03;;;10.05;62.46
32251;BME280;41295;48.518;9.206;2023-04-01T07:28:45;95870.84;;;10.00;62.58
32251;BME280;41295;48.518;9.206;2023-04-01T07:30:57;95854.38;;;9.99;62.45
32251;BME280;41295;48.518;9.206;2023-04-01T07:33:05;95860.00;;;9.92;62.95
32251;BME280;41295;48.518;9.206;2023-04-01T07:35:24;95857.50;;;9.90;62.86
32251;BME280;41295;48.518;9.206;2023-04-01T07:37:38;95865.81;;;9.97;62.81
32251;BME280;41295;48.518;9.206;2023-04-01T07:39:50;95888.78;;;10.05;62.40
32251;BME280;41295;48.518;9.206;2023-04-01T07:42:02;95864.16;;;10.10;62.03
32251;BME280;41295;48.518;9.206;2023-04-01T07:44:16;95870.69;;;9.87;63.43
32251;BME280;41295;48.518;9.206;2023-04-01T07:46:39;95874.44;;;9.97;62.95
32251;BME280;41295;48.518;9.206;2023-04-01T07:48:51;95867.38;;;9.99;62.25
32251;BME280;41295;48.518;9.206;2023-04-01T07:51:01;95874.59;;;10.10;62.36
32251;BME280;41295;48.518;9.206;2023-04-01T07:53:11;95862.75;;;10.05;62.49
32251;BME280;41295;48.518;9.206;2023-04-01T07:55:19;95860.63;;;10.11;62.05
32251;BME280;41295;48.518;9.206;2023-04-01T07:57:28;95875.16;;;10.16;61.79
32251;BME280;41295;48.518;9.206;2023-04-01T07:59:40;95872.44;;;10.17;61.89
32251;BME280;41295;48.518;9.206;2023-04-01T08:01:51;95872.16;;;10.07;62.64
32251;BME280;41295;48.518;9.206;2023-04-01T08:04:11;95874.50;;;10.12;61.93
32251;BME280;41295;48.518;9.206;2023-04-01T08:06:25;95868.66;;;10.23;61.19
32251;BME280;41295;48.518;9.206;2023-04-01T08:08:39;95888.16;;;10.16;61.72
32251;BME280;41295;48.518;9.206;2023-04-01T08:10:47;95879.69;;;10.12;61.78
32251;BME280;41295;48.518;9.206;2023-04-01T08:12:59;95883.91;;;10.15;61.32
32251;BME280;41295;48.518;9.206;2023-04-01T08:15:11;95880.06;;;10.06;62.22
32251;BME280;41295;48.518;9.206;2023-04-01T08:17:22;95884.56;;;10.18;61.44
32251;BME280;41295;48.518;9.206;2023-04-01T08:19:38;95899.63;;;10.28;61.37
32251;BME280;41295;48.518;9.206;2023-04-01T08:21:50;95901.84;;;10.19;61.43
32251;BME280;41295;48.518;9.206;2023-04-01T08:23:56;95910.91;;;10.28;61.09
32251;BME280;41295;48.518;9.206;2023-04-01T08:26:03;95904.75;;;10.15;62.07
32251;BME280;41295;48.518;9.206;2023-04-01T08:28:13;95897.31;;;10.23;61.75
32251;BME280;41295;48.518;9.206;2023-04-01T08:30:19;95901.94;;;10.18;62.51
32251;BME280;41295;48.518;9.206;2023-04-01T08:32:25;95909.09;;;10.14;64.25
32251;BME280;41295;48.518;9.206;2023-04-01T08:34:34;95904.31;;;10.06;64.00
32251;BME280;41295;48.518;9.206;2023-04-01T08:36:41;95907.13;;;10.03;63.88
32251;BME280;41295;48.518;9.206;2023-04-01T08:38:51;95909.38;;;10.24;63.28
32251;BME280;41295;48.518;9.206;2023-04-01T08:41:12;95899.22;;;10.05;64.23
32251;BME280;41295;48.518;9.206;2023-04-01T08:43:28;95910.69;;;9.86;64.99
32251;BME280;41295;48.518;9.206;2023-04-01T08:45:42;95908.72;;;10.06;64.72
32251;BME280;41295;48.518;9.206;2023-04-01T08:48:00;95899.38;;;10.02;64.24
32251;BME280;41295;48.518;9.206;2023-04-01T08:52:43;95911.09;;;10.25;62.64
32251;BME280;41295;48.518;9.206;2023-04-01T08:57:35;95904.50;;;10.34;62.36
32251;BME280;41295;48.518;9.206;2023-04-01T08:59:52;95905.59;;;10.30;62.54
32251;BME280;41295;48.518;9.206;2023-04-01T09:02:15;95922.94;;;10.31;62.66
32251;BME280;41295;48.518;9.206;2023-04-01T09:04:32;95909.16;;;10.29;63.26
32251;BME280;41295;48.518;9.206;2023-04-01T09:06:48;95924.44;;;10.19;63.68
32251;BME280;41295;48.518;9.206;2023-04-01T09:09:15;95904.91;;;10.11;64.40
32251;BME280;41295;48.518;9.206;2023-04-01T09:11:33;95910.09;;;10.11;64.81
32251;BME280;41295;48.518;9.206;2023-04-01T09:13:55;95919.06;;;10.22;64.94
32251;BME280;41295;48.518;9.206;2023-04-01T09:16:16;95914.25;;;9.99;65.91
32251;BME280;41295;48.518;9.206;2023-04-01T09:18:47;95912.31;;;10.03;66.36
32251;BME280;41295;48.518;9.206;2023-04-01T09:21:04;95917.00;;;10.13;65.60
32251;BME280;41295;48.518;9.206;2023-04-01T09:23:33;95923.75;;;10.01;66.96
32251;BME280;41295;48.518;9.206;2023-04-01T09:25:55;95913.97;;;9.90;68.09
32251;BME280;41295;48.518;9.206;2023-04-01T09:28:10;95922.75;;;10.03;67.82
32251;BME280;41295;48.518;9.206;2023-04-01T09:30:39;95927.94;;;10.03;66.66
32251;BME280;41295;48.518;9.206;2023-04-01T09:35:36;95922.97;;;10.15;66.74
32251;BME280;41295;48.518;9.206;2023-04-01T09:37:51;95927.00;;;10.04;67.54
32251;BME280;41295;48.518;9.206;2023-04-01T09:40:16;95938.59;;;10.15;68.27
32251;BME280;41295;48.518;9.206;2023-04-01T09:42:41;95931.84;;;10.27;67.36
32251;BME280;41295;48.518;9.206;2023-04-01T09:44:52;95926.50;;;10.14;68.25
32251;BME280;41295;48.518;9.206;2023-04-01T09:47:04;95943.72;;;10.16;67.97
32251;BME280;41295;48.518;9.206;2023-04-01T09:49:38;95946.56;;;10.11;67.74
32251;BME280;41295;48.518;9.206;2023-04-01T09:51:53;95957.16;;;10.08;68.22
32251;BME280;41295;48.518;9.206;2023-04-01T09:54:08;95957.84;;;10.12;68.44
32251;BME280;41295;48.518;9.206;2023-04-01T09:59:14;95959.16;;;10.19;67.49
32251;BME280;41295;48.518;9.206;2023-04-01T10:04:15;95949.28;;;9.94;68.24
32251;BME280;41295;48.518;9.206;2023-04-01T10:06:55;95956.59;;;10.03;68.92
32251;BME280;41295;48.518;9.206;2023-04-01T10:11:56;95956.16;;;10.11;69.21
32251;BME280;41295;48.518;9.206;2023-04-01T10:14:17;95950.78;;;10.14;68.67
32251;BME280;41295;48.518;9.206;2023-04-01T10:17:08;95961.69;;;10.21;68.82
32251;BME280;41295;48.518;9.206;2023-04-01T10:25:29;95956.31;;;10.08;69.94
32251;BME280;41295;48.518;9.206;2023-04-01T10:28:07;95966.34;;;9.99;70.26
32251;BME280;41295;48.518;9.206;2023-04-01T10:30:39;95962.22;;;9.95;70.44
32251;BME280;41295;48.518;9.206;2023-04-01T10:33:13;95958.03;;;9.93;70.97
32251;BME280;41295;48.518;9.206;2023-04-01T10:36:01;95958.31;;;9.72;72.60
32251;BME280;41295;48.518;9.206;2023-04-01T10:41:19;95973.41;;;9.97;70.16
32251;BME280;41295;48.518;9.206;2023-04-01T10:44:00;95968.66;;;9.73;71.12
32251;BME280;41295;48.518;9.206;2023-04-01T10:46:25;95974.84;;;9.87;70.48
32251;BME280;41295;48.518;9.206;2023-04-01T10:51:28;95968.06;;;9.68;71.51
32251;BME280;41295;48.518;9.206;2023-04-01T10:56:38;95957.09;;;9.94;69.74
32251;BME280;41295;48.518;9.206;2023-04-01T10:59:23;95961.81;;;9.87;69.66
32251;BME280;41295;48.518;9.206;2023-04-01T11:07:34;95953.00;;;10.06;70.97
32251;BME280;41295;48.518;9.206;2023-04-01T11:10:35;95954.13;;;10.16;69.47
32251;BME280;41295;48.518;9.206;2023-04-01T11:13:04;95965.66;;;10.12;68.88
32251;BME280;41295;48.518;9.206;2023-04-01T11:18:35;95965.31;;;10.18;69.11
32251;BME280;41295;48.518;9.206;2023-04-01T11:21:12;95959.88;;;9.91;70.74
32251;BME280;41295;48.518;9.206;2023-04-01T11:23:50;95970.84;;;10.12;69.84
32251;BME280;41295;48.518;9.206;2023-04-01T11:26:09;95969.78;;;10.16;69.68
32251;BME280;41295;48.518;9.206;2023-04-01T11:31:16;95976.22;;;10.25;68.29
32251;BME280;41295;48.518;9.206;2023-04-01T11:33:27;95982.09;;;10.29;68.81
32251;BME280;41295;48.518;9.206;2023-04-01T11:35:57;95971.00;;;10.25;68.89
32251;BME280;41295;48.518;9.206;2023-04-01T11:38:13;95978.72;;;10.27;69.22
32251;BME280;41295;48.518;9.206;2023-04-01T11:40:25;95986.41;;;10.14;70.07
32251;BME280;41295;48.518;9.206;2023-04-01T11:42:38;95993.44;;;10.11;69.89
32251;BME280;41295;48.518;9.206;2023-04-01T11:44:46;95987.56;;;10.08;69.18
32251;BME280;41295;48.518;9.206;2023-04-01T11:47:22;95986.22;;;10.17;68.84
32251;BME280;41295;48.518;9.206;2023-04-01T11:49:39;95997.06;;;10.25;69.52
32251;BME280;41295;48.518;9.206;2023-04-01T11:52:07;95977.16;;;10.08;69.34
32251;BME280;41295;48.518;9.206;2023-04-01T11:54:21;95994.59;;;10.22;69.91
32251;BME280;41295;48.518;9.206;2023-04-01T11:56:51;95987.41;;;10.42;68.26
32251;BME280;41295;48.518;9.206;2023-04-01T11:59:15;95987.88;;;10.50;68.71
32251;BME280;41295;48.518;9.206;2023-04-01T12:01:25;95988.63;;;10.52;68.35
32251;BME280;41295;48.518;9.206;2023-04-01T12:03:53;95980.63;;;10.55;67.38
32251;BME280;41295;48.518;9.206;2023-04-01T12:06:05;95980.72;;;10.54;68.29
32251;BME280;41295;48.518;9.206;2023-04-01T12:08:21;95990.84;;;10.58;67.67
32251;BME280;41295;48.518;9.206;2023-04-01T12:10:38;95976.88;;;10.59;69.33
32251;BME280;41295;48.518;9.206;2023-04-01T12:12:48;96003.22;;;10.55;68.25
32251;BME280;41295;48.518;9.206;2023-04-01T12:15:14;95992.03;;;10.53;69.64
32251;BME280;41295;48.518;9.206;2023-04-01T12:17:29;95992.72;;;10.40;69.97
32251;BME280;41295;48.518;9.206;2023-04-01T12:19:43;95993.59;;;10.25;71.40
32251;BME280;41295;48.518;9.206;2023-04-01T12:21:59;96004.97;;;10.23;72.31
32251;BME280;41295;48.518;9.206;2023-04-01T12:24:41;95999.34;;;10.46;71.69